createdAt,value
2023-05-22T00:02:08.569Z,14.19
2023-05-22T00:04:36.560Z,14.07
2023-05-22T00:07:06.687Z,14.14
2023-05-22T00:09:34.472Z,14.09
2023-05-22T00:12:02.182Z,14.05
2023-05-22T00:14:29.966Z,13.98
2023-05-22T00:16:58.474Z,13.91
2023-05-22T00:19:26.426Z,13.89
2023-05-22T00:21:55.388Z,13.82
2023-05-22T00:24:23.072Z,13.79
2023-05-22T00:26:50.695Z,13.79
2023-05-22T00:29:18.454Z,13.79
2023-05-22T00:31:46.102Z,13.77
2023-05-22T00:34:13.886Z,13.70
2023-05-22T00:36:42.215Z,13.64
2023-05-22T00:39:09.962Z,13.58
2023-05-22T00:41:38.914Z,13.53
2023-05-22T00:44:08.203Z,13.46
2023-05-22T00:46:36.635Z,13.41
2023-05-22T00:49:04.912Z,13.35
2023-05-22T00:51:33.110Z,13.27
2023-05-22T00:54:00.880Z,13.19
2023-05-22T00:56:29.198Z,13.15
2023-05-22T00:58:57.028Z,13.09
2023-05-22T01:01:26.824Z,12.99
2023-05-22T01:03:55.882Z,12.91
2023-05-22T01:06:24.522Z,12.86
2023-05-22T01:08:52.249Z,12.81
2023-05-22T01:11:32.040Z,12.77
2023-05-22T01:14:23.545Z,12.70
2023-05-22T01:17:12.282Z,12.60
2023-05-22T01:20:01.621Z,12.51
2023-05-22T01:23:08.791Z,12.43
2023-05-22T01:26:24.794Z,12.33
2023-05-22T01:29:21.716Z,12.24
2023-05-22T01:31:52.880Z,12.19
2023-05-22T01:34:21.570Z,12.20
2023-05-22T01:36:54.449Z,12.20
2023-05-22T01:39:25.742Z,12.19
2023-05-22T01:41:53.792Z,12.18
2023-05-22T01:44:21.589Z,12.18
2023-05-22T01:46:49.368Z,12.16
2023-05-22T01:49:17.926Z,12.13
2023-05-22T01:52:03.750Z,12.06
2023-05-22T01:54:39.899Z,12.01
2023-05-22T01:57:27.453Z,12.01
2023-05-22T02:00:15.251Z,11.95
2023-05-22T02:02:48.469Z,11.95
2023-05-22T02:05:18.886Z,11.91
2023-05-22T02:07:48.416Z,11.95
2023-05-22T02:10:17.604Z,11.99
2023-05-22T02:12:46.049Z,11.95
2023-05-22T02:15:14.613Z,11.91
2023-05-22T02:17:42.606Z,11.89
2023-05-22T02:20:14.661Z,11.86
2023-05-22T02:22:44.408Z,11.85
2023-05-22T02:25:16.981Z,11.79
2023-05-22T02:27:47.451Z,11.78
2023-05-22T02:30:15.600Z,11.71
2023-05-22T02:32:43.942Z,11.62
2023-05-22T02:35:11.803Z,11.61
2023-05-22T02:37:39.708Z,11.61
2023-05-22T02:40:10.121Z,11.58
2023-05-22T02:42:37.944Z,11.51
2023-05-22T02:45:07.088Z,11.49
2023-05-22T02:47:34.886Z,11.47
2023-05-22T02:50:03.326Z,11.46
2023-05-22T02:52:32.321Z,11.42
2023-05-22T02:54:59.982Z,11.44
2023-05-22T02:57:28.005Z,11.46
2023-05-22T02:59:57.669Z,11.43
2023-05-22T03:02:28.469Z,11.40
2023-05-22T03:04:59.143Z,11.37
2023-05-22T03:07:27.109Z,11.36
2023-05-22T03:09:55.384Z,11.41
2023-05-22T03:12:23.966Z,11.46
2023-05-22T03:14:51.702Z,11.46
2023-05-22T03:17:19.462Z,11.45
2023-05-22T03:19:47.139Z,11.48
2023-05-22T03:22:14.875Z,11.55
2023-05-22T03:24:42.678Z,11.61
2023-05-22T03:27:11.609Z,11.64
2023-05-22T03:29:39.250Z,11.75
2023-05-22T03:32:07.182Z,11.88
2023-05-22T03:34:34.999Z,11.98
2023-05-22T03:37:02.767Z,12.03
2023-05-22T03:39:30.519Z,12.09
2023-05-22T03:41:58.305Z,12.17
2023-05-22T03:44:25.940Z,12.26
2023-05-22T03:46:54.190Z,12.34
2023-05-22T03:49:22.934Z,12.45
2023-05-22T03:51:50.984Z,12.52
2023-05-22T03:54:19.024Z,12.60
2023-05-22T03:56:46.911Z,12.67
2023-05-22T03:59:14.618Z,12.75
2023-05-22T04:01:42.832Z,12.84
2023-05-22T04:04:12.271Z,12.93
2023-05-22T04:06:43.392Z,13.04
2023-05-22T04:09:12.364Z,13.14
2023-05-22T04:11:42.270Z,13.25
2023-05-22T04:14:10.361Z,13.31
2023-05-22T04:16:38.481Z,13.35
2023-05-22T04:19:06.766Z,13.41
2023-05-22T04:21:35.583Z,13.48
2023-05-22T04:24:07.310Z,13.58
2023-05-22T04:26:40.423Z,13.68
2023-05-22T04:29:11.109Z,13.78
2023-05-22T04:31:39.022Z,13.84
2023-05-22T04:34:09.317Z,13.93
2023-05-22T04:36:39.081Z,14.01
2023-05-22T04:39:07.173Z,14.10
2023-05-22T04:41:35.579Z,14.20
2023-05-22T04:44:04.129Z,14.28
2023-05-22T04:46:34.738Z,14.38
2023-05-22T04:49:03.477Z,14.58
2023-05-22T04:51:33.064Z,14.71
2023-05-22T04:54:00.969Z,14.89
2023-05-22T04:56:36.328Z,15.08
2023-05-22T04:59:09.632Z,15.20
2023-05-22T05:01:38.802Z,15.38
2023-05-22T05:04:16.112Z,15.58
2023-05-22T05:06:45.253Z,15.78
2023-05-22T05:09:14.972Z,15.98
2023-05-22T05:11:42.891Z,16.20
2023-05-22T05:14:11.750Z,16.42
2023-05-22T05:16:41.262Z,16.57
2023-05-22T05:22:53.778Z,17.01
2023-05-22T05:25:21.839Z,17.15
2023-05-22T05:27:50.868Z,17.46
2023-05-22T05:30:20.607Z,17.76
2023-05-22T05:32:49.283Z,18.10
2023-05-22T05:35:20.280Z,18.35
2023-05-22T05:37:48.072Z,18.55
2023-05-22T05:40:17.262Z,18.87
2023-05-22T05:42:45.089Z,19.40
2023-05-22T05:45:13.627Z,20.20
2023-05-22T05:47:42.496Z,21.05
2023-05-22T05:50:11.089Z,21.73
2023-05-22T05:52:38.852Z,22.28
2023-05-22T05:55:06.748Z,22.55
2023-05-22T05:57:34.902Z,22.95
2023-05-22T06:00:04.584Z,23.27
2023-05-22T06:02:56.493Z,23.20
2023-05-22T06:05:27.347Z,23.06
2023-05-22T06:07:58.347Z,22.87
2023-05-22T06:10:26.429Z,22.69
2023-05-22T06:12:54.199Z,22.57
2023-05-22T06:15:22.082Z,22.60
2023-05-22T06:17:49.985Z,22.51
2023-05-22T06:20:17.717Z,22.39
2023-05-22T06:22:46.409Z,22.64
2023-05-22T06:25:14.259Z,23.12
2023-05-22T06:27:42.759Z,23.27
2023-05-22T06:30:10.962Z,23.08
2023-05-22T06:32:38.957Z,23.05
2023-05-22T06:35:08.663Z,23.43
2023-05-22T06:37:37.900Z,23.91
2023-05-22T06:40:07.097Z,24.22
2023-05-22T06:42:35.208Z,24.85
2023-05-22T06:45:03.137Z,25.38
2023-05-22T06:47:32.743Z,25.31
2023-05-22T06:50:00.427Z,24.94
2023-05-22T06:52:29.734Z,24.95
2023-05-22T06:55:04.324Z,25.36
2023-05-22T06:57:33.149Z,25.79
2023-05-22T07:00:01.517Z,26.24
2023-05-22T07:02:29.294Z,26.31
2023-05-22T07:04:57.050Z,26.49
2023-05-22T07:07:24.885Z,26.88
2023-05-22T07:09:52.649Z,27.29
2023-05-22T07:12:21.051Z,27.72
2023-05-22T07:14:48.778Z,28.04
2023-05-22T07:17:16.884Z,28.22
2023-05-22T07:19:45.145Z,28.47
2023-05-22T07:22:12.949Z,28.75
2023-05-22T07:24:40.694Z,29.13
2023-05-22T07:27:09.618Z,28.90
2023-05-22T07:29:38.943Z,28.73
2023-05-22T07:32:08.678Z,29.20
2023-05-22T07:34:36.390Z,29.81
2023-05-22T07:37:08.983Z,29.92
2023-05-22T07:39:36.805Z,29.24
2023-05-22T07:42:04.988Z,29.61
2023-05-22T07:44:33.704Z,30.16
2023-05-22T07:47:01.499Z,30.54
2023-05-22T07:49:29.887Z,30.68
2023-05-22T07:51:58.257Z,30.25
2023-05-22T07:54:26.310Z,29.17
2023-05-22T07:56:56.168Z,29.23
2023-05-22T07:59:25.555Z,29.09
2023-05-22T08:01:54.212Z,29.12
2023-05-22T08:04:22.396Z,29.47
2023-05-22T08:06:50.862Z,30.40
2023-05-22T08:09:21.250Z,31.11
2023-05-22T08:11:50.158Z,31.15
2023-05-22T08:14:20.219Z,30.50
2023-05-22T08:16:48.407Z,30.26
2023-05-22T08:19:16.912Z,29.84
2023-05-22T08:21:45.527Z,29.23
2023-05-22T08:24:13.665Z,28.90
2023-05-22T08:26:43.292Z,28.94
2023-05-22T08:29:11.768Z,29.78
2023-05-22T08:31:39.567Z,30.97
2023-05-22T08:34:13.574Z,31.53
2023-05-22T08:36:41.537Z,29.99
2023-05-22T08:39:12.225Z,28.77
2023-05-22T08:41:40.127Z,29.06
2023-05-22T08:44:08.550Z,28.61
2023-05-22T08:46:41.947Z,28.64
2023-05-22T08:49:10.918Z,30.24
2023-05-22T08:51:40.642Z,31.01
2023-05-22T08:54:10.136Z,31.62
2023-05-22T08:56:53.038Z,31.56
2023-05-22T08:59:24.568Z,29.91
2023-05-22T09:01:52.871Z,28.77
2023-05-22T09:04:24.349Z,28.56
2023-05-22T09:06:53.081Z,28.94
2023-05-22T09:09:21.194Z,30.16
2023-05-22T09:11:49.962Z,30.35
2023-05-22T09:14:18.754Z,29.90
2023-05-22T09:16:53.118Z,29.37
2023-05-22T09:19:21.547Z,28.89
2023-05-22T09:21:49.887Z,28.46
2023-05-22T09:24:18.727Z,28.43
2023-05-22T09:26:48.501Z,28.07
2023-05-22T09:29:17.064Z,27.39
2023-05-22T09:31:45.232Z,27.08
2023-05-22T09:34:17.839Z,27.32
2023-05-22T09:36:45.819Z,27.14
2023-05-22T09:39:13.776Z,26.93
2023-05-22T09:41:41.512Z,26.90
2023-05-22T09:44:14.134Z,27.15
2023-05-22T09:46:45.338Z,27.49
2023-05-22T09:49:15.789Z,28.08
2023-05-22T09:51:49.523Z,29.25
2023-05-22T09:54:20.067Z,29.57
2023-05-22T09:56:50.342Z,29.07
2023-05-22T09:59:26.897Z,27.98
2023-05-22T10:01:55.372Z,27.71
2023-05-22T10:04:24.118Z,27.69
2023-05-22T10:11:11.935Z,27.41
2023-05-22T10:13:41.472Z,27.27
2023-05-22T10:20:29.763Z,26.14
2023-05-22T10:22:57.654Z,26.05
2023-05-22T10:25:26.333Z,25.29
2023-05-22T10:27:55.726Z,25.19
2023-05-22T10:30:44.505Z,25.61
2023-05-22T10:33:20.112Z,25.76
2023-05-22T10:35:59.217Z,25.86
2023-05-22T10:38:30.051Z,26.25
2023-05-22T10:41:04.422Z,26.45
2023-05-22T10:43:33.255Z,26.40
2023-05-22T10:46:04.290Z,26.24
2023-05-22T10:48:53.438Z,26.16
2023-05-22T10:51:23.205Z,26.22
2023-05-22T10:54:02.700Z,26.43
2023-05-22T10:56:50.587Z,26.78
2023-05-22T10:59:35.332Z,26.78
2023-05-22T11:02:06.514Z,26.71
2023-05-22T11:04:34.887Z,27.12
2023-05-22T11:07:07.918Z,28.09
2023-05-22T11:09:48.803Z,28.71
2023-05-22T11:12:31.168Z,29.65
2023-05-22T11:15:06.139Z,29.58
2023-05-22T11:17:41.608Z,29.05
2023-05-22T11:20:13.268Z,28.50
2023-05-22T11:22:52.230Z,28.30
2023-05-22T11:25:20.387Z,28.74
2023-05-22T11:27:49.276Z,29.15
2023-05-22T11:30:17.535Z,29.22
2023-05-22T11:32:45.985Z,28.40
2023-05-22T11:35:18.457Z,29.24
2023-05-22T11:37:47.638Z,30.10
2023-05-22T11:40:18.111Z,31.51
2023-05-22T11:42:47.672Z,32.79
2023-05-22T11:45:16.525Z,33.51
2023-05-22T11:47:47.117Z,34.30
2023-05-22T11:50:17.930Z,33.93
2023-05-22T11:52:53.834Z,31.84
2023-05-22T11:55:23.956Z,32.13
2023-05-22T11:57:55.891Z,32.31
2023-05-22T12:00:27.805Z,32.15
2023-05-22T12:02:56.696Z,32.84
2023-05-22T12:05:24.832Z,33.30
2023-05-22T12:07:53.139Z,33.82
2023-05-22T12:10:21.203Z,34.58
2023-05-22T12:12:49.193Z,34.60
2023-05-22T12:15:21.423Z,33.48
2023-05-22T12:17:50.529Z,31.67
2023-05-22T12:20:19.199Z,30.29
2023-05-22T12:22:49.545Z,29.10
2023-05-22T12:25:17.760Z,28.97
2023-05-22T12:27:50.212Z,28.70
2023-05-22T12:30:19.270Z,28.64
2023-05-22T12:32:50.329Z,28.35
2023-05-22T12:35:19.659Z,28.31
2023-05-22T12:37:53.176Z,28.34
2023-05-22T12:40:22.446Z,27.88
2023-05-22T12:42:52.938Z,27.49
2023-05-22T12:45:21.435Z,27.72
2023-05-22T12:47:49.684Z,28.12
2023-05-22T12:50:19.208Z,28.68
2023-05-22T12:52:48.205Z,29.83
2023-05-22T12:55:16.112Z,30.57
2023-05-22T12:57:52.186Z,31.72
2023-05-22T13:00:20.592Z,32.69
2023-05-22T13:02:51.236Z,33.12
2023-05-22T13:05:21.076Z,33.49
2023-05-22T13:07:49.518Z,33.73
2023-05-22T13:10:21.610Z,33.27
2023-05-22T13:12:51.699Z,32.51
2023-05-22T13:15:20.364Z,31.89
2023-05-22T13:17:50.442Z,31.26
2023-05-22T13:20:32.364Z,31.89
2023-05-22T13:23:01.254Z,32.08
2023-05-22T13:25:36.216Z,31.63
2023-05-22T13:28:05.439Z,32.46
2023-05-22T13:30:35.583Z,33.41
2023-05-22T13:33:04.147Z,33.73
2023-05-22T13:35:33.078Z,32.75
2023-05-22T13:38:02.024Z,31.79
2023-05-22T13:40:31.525Z,30.49
2023-05-22T13:43:02.653Z,30.82
2023-05-22T13:45:32.215Z,31.61
2023-05-22T13:48:01.340Z,31.94
2023-05-22T13:53:13.900Z,30.54
2023-05-22T13:55:44.580Z,29.22
2023-05-22T13:58:12.830Z,28.49
2023-05-22T14:00:44.654Z,28.10
2023-05-22T14:03:17.813Z,27.53
2023-05-22T14:05:59.395Z,27.53
2023-05-22T14:08:27.766Z,27.60
2023-05-22T14:10:55.918Z,27.48
2023-05-22T14:13:23.802Z,27.56
2023-05-22T14:15:51.682Z,28.47
2023-05-22T14:18:19.802Z,29.44
2023-05-22T14:20:47.695Z,29.74
2023-05-22T14:23:15.762Z,30.52
2023-05-22T14:25:43.929Z,30.81
2023-05-22T14:28:14.598Z,30.93
2023-05-22T14:30:43.118Z,31.36
2023-05-22T14:33:12.588Z,31.84
2023-05-22T14:35:41.066Z,31.62
2023-05-22T14:38:09.136Z,30.92
2023-05-22T14:40:36.981Z,30.37
2023-05-22T14:43:04.743Z,29.68
2023-05-22T14:45:32.629Z,28.36
2023-05-22T14:48:01.364Z,27.95
2023-05-22T14:50:29.483Z,28.07
2023-05-22T14:52:57.805Z,28.26
2023-05-22T14:55:32.168Z,28.95
2023-05-22T14:58:02.194Z,29.61
2023-05-22T15:00:33.341Z,30.66
2023-05-22T15:03:05.504Z,31.77
2023-05-22T15:05:33.480Z,32.40
2023-05-22T15:08:03.496Z,32.98
2023-05-22T15:10:32.747Z,33.57
2023-05-22T15:13:01.514Z,33.98
2023-05-22T15:15:29.560Z,34.50
2023-05-22T15:18:02.807Z,34.61
2023-05-22T15:20:32.270Z,32.68
2023-05-22T15:23:03.472Z,31.19
2023-05-22T15:25:36.620Z,30.89
2023-05-22T15:28:11.075Z,29.27
2023-05-22T15:30:42.786Z,29.73
2023-05-22T15:33:13.150Z,32.11
2023-05-22T15:35:42.047Z,32.51
2023-05-22T15:38:13.327Z,31.83
2023-05-22T15:40:41.854Z,32.62
2023-05-22T15:43:10.746Z,33.59
2023-05-22T15:45:39.128Z,34.03
2023-05-22T15:48:07.306Z,33.59
2023-05-22T15:50:35.626Z,33.29
2023-05-22T15:53:03.753Z,32.64
2023-05-22T15:55:35.685Z,31.47
2023-05-22T15:58:06.277Z,29.36
2023-05-22T16:00:41.231Z,28.38
2023-05-22T16:03:11.380Z,27.59
2023-05-22T16:05:40.166Z,26.82
2023-05-22T16:08:10.490Z,26.20
2023-05-22T16:10:41.477Z,26.15
2023-05-22T16:13:12.917Z,26.11
2023-05-22T16:15:41.342Z,25.98
2023-05-22T16:18:09.802Z,26.02
2023-05-22T16:20:38.910Z,25.88
2023-05-22T16:23:06.776Z,25.75
2023-05-22T16:25:35.881Z,25.86
2023-05-22T16:28:05.614Z,25.78
2023-05-22T16:30:35.950Z,25.69
2023-05-22T16:33:03.788Z,25.77
2023-05-22T16:35:34.261Z,25.58
2023-05-22T16:38:02.226Z,25.27
2023-05-22T16:40:38.209Z,25.12
2023-05-22T16:43:09.915Z,25.14
2023-05-22T16:45:38.978Z,25.00
2023-05-22T16:48:08.312Z,25.02
2023-05-22T16:50:36.312Z,24.98
2023-05-22T16:53:04.048Z,24.80
2023-05-22T16:55:32.652Z,24.77
2023-05-22T16:58:00.517Z,24.94
2023-05-22T17:00:28.648Z,24.91
2023-05-22T17:02:56.977Z,24.80
2023-05-22T17:05:26.426Z,24.78
2023-05-22T17:07:54.362Z,24.61
2023-05-22T17:10:22.458Z,24.47
2023-05-22T17:12:50.450Z,24.25
2023-05-22T17:17:49.026Z,23.98
2023-05-22T17:20:16.853Z,23.88
2023-05-22T17:22:45.375Z,23.95
2023-05-22T17:25:14.500Z,23.96
2023-05-22T17:27:42.332Z,23.89
2023-05-22T17:30:11.132Z,23.84
2023-05-22T17:32:39.257Z,23.77
2023-05-22T17:35:07.242Z,23.66
2023-05-22T17:37:35.079Z,23.54
2023-05-22T17:40:03.945Z,23.41
2023-05-22T17:42:31.654Z,23.39
2023-05-22T17:44:59.405Z,23.25
2023-05-22T17:47:30.584Z,23.15
2023-05-22T17:49:58.495Z,23.08
2023-05-22T17:52:27.004Z,23.01
2023-05-22T17:54:57.776Z,22.90
2023-05-22T17:57:28.138Z,22.82
2023-05-22T17:59:55.894Z,22.72
2023-05-22T18:02:24.102Z,22.64
2023-05-22T18:04:52.313Z,22.58
2023-05-22T18:07:20.268Z,22.47
2023-05-22T18:09:48.526Z,22.41
2023-05-22T18:12:31.335Z,22.35
2023-05-22T18:14:59.803Z,22.23
2023-05-22T18:17:27.808Z,22.16
2023-05-22T18:19:57.253Z,21.99
2023-05-22T18:22:26.655Z,21.80
2023-05-22T18:24:54.664Z,21.65
2023-05-22T18:27:23.644Z,21.48
2023-05-22T18:29:53.956Z,21.29
2023-05-22T18:32:22.854Z,21.14
2023-05-22T18:34:52.298Z,20.99
2023-05-22T18:37:21.283Z,20.81
2023-05-22T18:39:54.565Z,20.57
2023-05-22T18:42:22.366Z,20.38
2023-05-22T18:44:50.738Z,20.26
2023-05-22T18:47:19.551Z,20.13
2023-05-22T18:49:48.748Z,19.98
2023-05-22T18:52:21.058Z,19.85
2023-05-22T18:54:52.507Z,19.68
2023-05-22T18:57:20.253Z,19.59
2023-05-22T18:59:51.880Z,19.49
2023-05-22T19:02:21.834Z,19.37
2023-05-22T19:04:50.976Z,19.25
2023-05-22T19:07:18.921Z,19.16
2023-05-22T19:10:35.789Z,19.08
2023-05-22T19:14:32.902Z,18.78
2023-05-22T19:17:00.712Z,18.58
2023-05-22T19:19:28.514Z,18.57
2023-05-22T19:21:56.852Z,18.52
2023-05-22T19:24:27.383Z,18.52
2023-05-22T19:26:57.390Z,18.48
2023-05-22T19:29:25.171Z,18.43
2023-05-22T19:31:52.960Z,18.32
2023-05-22T19:34:20.914Z,18.30
2023-05-22T19:36:51.701Z,18.28
2023-05-22T19:39:19.456Z,18.20
2023-05-22T19:41:47.542Z,18.19
2023-05-22T19:44:15.197Z,18.10
2023-05-22T19:46:43.691Z,17.93
2023-05-22T19:49:11.484Z,17.76
2023-05-22T19:51:40.666Z,17.65
2023-05-22T19:54:08.357Z,17.57
2023-05-22T19:56:36.331Z,17.57
2023-05-22T19:59:04.030Z,17.56
2023-05-22T20:01:31.777Z,17.57
2023-05-22T20:04:01.027Z,17.55
2023-05-22T20:06:31.695Z,17.48
2023-05-22T20:08:59.512Z,17.46
2023-05-22T20:11:28.924Z,17.40
2023-05-22T20:13:57.699Z,17.24
2023-05-22T20:16:28.544Z,17.15
2023-05-22T20:18:57.255Z,17.03
2023-05-22T20:21:24.990Z,16.91
2023-05-22T20:23:53.305Z,16.82
2023-05-22T20:26:21.564Z,16.77
2023-05-22T20:28:49.639Z,16.77
2023-05-22T20:31:17.560Z,16.75
2023-05-22T20:33:45.494Z,16.67
2023-05-22T20:36:17.022Z,16.59
2023-05-22T20:38:44.690Z,16.51
2023-05-22T20:41:14.087Z,16.45
2023-05-22T20:43:44.655Z,16.41
2023-05-22T20:46:12.496Z,16.32
2023-05-22T20:48:46.872Z,16.23
2023-05-22T20:51:20.487Z,16.19
2023-05-22T20:53:48.546Z,16.18
2023-05-22T20:56:16.330Z,16.12
2023-05-22T20:58:44.025Z,16.10
2023-05-22T21:01:11.715Z,16.07
2023-05-22T21:03:41.368Z,16.04
2023-05-22T21:06:09.509Z,16.03
2023-05-22T21:08:37.144Z,15.99
2023-05-22T21:11:06.921Z,15.92
2023-05-22T21:14:17.886Z,15.77
2023-05-22T21:16:44.155Z,15.53
2023-05-22T21:19:10.559Z,15.55
2023-05-22T21:21:40.858Z,15.53
2023-05-22T21:24:10.328Z,15.48
2023-05-22T21:26:36.889Z,15.39
2023-05-22T21:29:03.912Z,15.34
2023-05-22T21:31:31.496Z,15.29
2023-05-22T21:33:58.601Z,15.24
2023-05-22T21:36:25.500Z,15.23
2023-05-22T21:38:52.654Z,15.20
2023-05-22T21:41:19.051Z,15.16
2023-05-22T21:43:46.798Z,15.13
2023-05-22T21:46:13.140Z,15.14
2023-05-22T21:48:39.705Z,15.09
2023-05-22T21:51:06.491Z,15.07
2023-05-22T21:53:32.811Z,15.03
2023-05-22T21:55:59.096Z,14.95
2023-05-22T21:58:25.672Z,14.83
2023-05-22T22:00:51.987Z,14.77
2023-05-22T22:03:18.323Z,14.75
2023-05-22T22:05:45.094Z,14.70
2023-05-22T22:08:11.327Z,14.67
2023-05-22T22:10:38.087Z,14.65
2023-05-22T22:13:05.161Z,14.63
2023-05-22T22:15:33.156Z,14.56
2023-05-22T22:18:01.486Z,14.51
2023-05-22T22:20:43.341Z,14.45
2023-05-22T22:23:10.433Z,14.39
2023-05-22T22:25:59.101Z,14.30
2023-05-22T22:29:41.822Z,14.10
2023-05-22T22:33:18.827Z,13.92
2023-05-22T22:37:09.688Z,13.81
2023-05-22T22:39:38.240Z,13.73
2023-05-22T22:42:06.200Z,13.78
2023-05-22T22:44:34.133Z,13.82
2023-05-22T22:47:02.246Z,13.84
2023-05-22T22:49:32.101Z,13.82
2023-05-22T22:51:59.911Z,13.81
2023-05-22T22:54:27.935Z,13.80
2023-05-22T22:56:55.752Z,13.76
2023-05-22T22:59:23.420Z,13.72
2023-05-22T23:01:51.193Z,13.69
2023-05-22T23:04:19.278Z,13.63
2023-05-22T23:06:47.001Z,13.58
2023-05-22T23:09:15.157Z,13.54
2023-05-22T23:11:42.915Z,13.52
2023-05-22T23:14:10.582Z,13.50
2023-05-22T23:16:42.642Z,13.46
2023-05-22T23:19:11.005Z,13.42
2023-05-22T23:22:35.287Z,13.33
2023-05-22T23:26:12.298Z,13.15
2023-05-22T23:28:39.997Z,13.07
2023-05-22T23:31:09.938Z,13.15
2023-05-22T23:33:38.108Z,13.13
2023-05-22T23:36:06.042Z,13.09
2023-05-22T23:38:33.700Z,13.07
2023-05-22T23:41:01.434Z,13.05
2023-05-22T23:43:29.129Z,13.03
2023-05-22T23:45:57.673Z,12.96
2023-05-22T23:48:25.719Z,12.91
2023-05-22T23:51:26.185Z,12.77
2023-05-22T23:55:04.090Z,12.55
2023-05-22T23:58:42.189Z,12.42
